Airfield :
LOGIN :

Register | Disclaimer

   EN    FR    IT 

 










Legend :    VFR   Marginal VFR   IFR   Intensive IFR   Very Intensive IFR
Visi :
Ceiling :
>= 8 km
>= 3000ft
5 to 8 km
1000 to 3000 ft
1500m to 5 km
500 to 1000 ft
800 to 1500m
200 to 500 ft
< 800m
< 200 ft
Symbols :   Thunderstorms  Fog  Heavy snow  Heavy precipitations  Wind > 20 kt
SIGMETs :     Misc.  Thunderstorms  Icing  Turbulence  Mountain Waves  Volcanic Ashes







- Airport Elevation : 333 ft


LIPL - Ghedi Brescia (Mil)

CURRENT METAR :
  • 262255Z /////KT 9999 -RA SCT010 SCT020 12/12 Q1007 RMK OVC VIS MIN 9999 WIND THR31 03004KT BLU

EXPIRED METARs :
  • 262155Z /////KT 9999 -RA SCT030 SCT060 11/11 Q1007 RMK OVC VIS MIN 9999 WIND THR31 08005KT BLU
  • 262055Z /////KT 9999 -RA SCT030 SCT060 11/11 Q1007 RMK OVC VIS MIN 9999 WIND THR31 08009KT BLU

TAF TAF LIPL
Valid from the 26 at 21:00 until the 27 at 06:00 UTC


262000Z 2621/2706 07010KT 9000 RA SCT030 SCT045
TEMPO 2621/2703 4000 SHRA BR SCT015 BKN030
No reported NOTAMs for that airfield.



MET'MAP, your aeronautical weather chart ! - Copyright ORBIFLY December 2007 - Disclaimer

ORBIFLY MET'MAP TEAM :

Programming & Development : Alexandra Zaïnal
Concept & Development : Baudouin d'Aumeries
Co-Development & Prog : Marc-Olivier Méhu
Technical & hardware support : Manuel Goepfert

Contact : metmap@orbifly.com




SOURCES & CREDITS :

   NOAA